createdAt,value
2023-03-24T00:00:27.813Z,0.00
2023-03-24T00:12:30.454Z,0.85
2023-03-24T00:24:28.677Z,0.00
2023-03-24T00:36:29.285Z,0.00
2023-03-24T00:48:29.586Z,1.31
2023-03-24T01:00:30.103Z,0.08
2023-03-24T01:12:30.496Z,0.50
2023-03-24T01:24:33.172Z,0.00
2023-03-24T01:36:31.402Z,0.77
2023-03-24T02:00:35.037Z,0.19
2023-03-24T02:12:35.475Z,0.00
2023-03-24T02:24:33.239Z,0.08
2023-03-24T02:48:34.118Z,0.06
2023-03-24T03:00:34.636Z,0.09
2023-03-24T03:12:35.028Z,0.00
2023-03-24T03:24:35.463Z,0.00
2023-03-24T03:36:35.931Z,0.94
2023-03-24T03:48:36.437Z,0.39
2023-03-24T04:00:36.842Z,0.43
2023-03-24T04:12:37.301Z,0.09
2023-03-24T04:24:40.818Z,0.01
2023-03-24T04:36:38.215Z,0.01
2023-03-24T04:48:38.665Z,0.01
2023-03-24T05:00:39.126Z,0.01
2023-03-24T05:12:39.602Z,0.78
2023-03-24T05:24:40.013Z,0.85
2023-03-24T05:36:40.441Z,0.00
2023-03-24T05:48:40.902Z,0.35
2023-03-24T06:00:41.361Z,0.11
2023-03-24T06:12:41.817Z,0.00
2023-03-24T06:24:42.245Z,0.00
2023-03-24T06:36:42.714Z,0.39
2023-03-24T06:48:45.884Z,0.54
2023-03-24T07:00:44.190Z,0.16
2023-03-24T07:12:44.071Z,1.39
2023-03-24T07:24:44.505Z,1.83
2023-03-24T07:36:44.999Z,1.26
2023-03-24T07:48:45.464Z,0.61
2023-03-24T08:00:45.960Z,0.59
2023-03-24T08:12:46.351Z,0.72
2023-03-24T08:24:46.775Z,0.76
2023-03-24T08:36:47.278Z,1.03
2023-03-24T08:48:47.691Z,2.22
2023-03-24T09:00:48.176Z,2.91
2023-03-24T09:12:48.617Z,2.53
2023-03-24T09:24:49.117Z,1.09
2023-03-24T09:36:49.501Z,3.36
2023-03-24T09:48:49.964Z,2.81
2023-03-24T10:00:50.621Z,2.30
2023-03-24T10:12:50.930Z,3.22
2023-03-24T10:24:51.332Z,1.71
2023-03-24T10:36:51.797Z,4.40
2023-03-24T10:48:52.252Z,3.27
2023-03-24T11:00:52.740Z,2.78
2023-03-24T11:12:53.175Z,2.35
2023-03-24T11:24:53.608Z,3.17
2023-03-24T11:36:54.077Z,3.30
2023-03-24T11:48:54.556Z,2.77
2023-03-24T12:00:54.961Z,2.11
2023-03-24T12:12:55.445Z,1.06
2023-03-24T12:24:55.897Z,2.12
2023-03-24T12:36:56.499Z,1.14
2023-03-24T12:48:56.809Z,1.74
2023-03-24T13:00:57.330Z,1.50
2023-03-24T13:12:57.729Z,0.40
2023-03-24T13:24:58.201Z,1.46
2023-03-24T13:36:58.719Z,2.70
2023-03-24T13:48:59.074Z,1.93
2023-03-24T14:00:59.594Z,0.99
2023-03-24T14:13:00.050Z,0.59
2023-03-24T14:25:00.552Z,2.10
2023-03-24T14:37:01.039Z,0.22
2023-03-24T14:49:01.388Z,1.86
2023-03-24T15:13:02.257Z,0.94
2023-03-24T15:25:02.735Z,0.19
2023-03-24T15:37:03.185Z,0.89
2023-03-24T15:49:03.686Z,0.00
2023-03-24T16:01:04.131Z,1.97
2023-03-24T16:13:04.557Z,4.30
2023-03-24T16:25:05.005Z,2.58
2023-03-24T16:37:05.469Z,0.63
2023-03-24T16:49:06.015Z,0.73
2023-03-24T17:01:06.551Z,0.93
2023-03-24T17:13:06.848Z,0.64
2023-03-24T17:25:07.296Z,0.26
2023-03-24T17:37:07.759Z,0.28
2023-03-24T17:49:08.201Z,0.53
2023-03-24T18:01:09.093Z,0.53
2023-03-24T18:13:09.096Z,0.08
2023-03-24T18:25:09.607Z,0.01
2023-03-24T18:37:09.988Z,0.15
2023-03-24T18:49:10.460Z,0.22
2023-03-24T19:01:10.957Z,0.45
2023-03-24T19:13:11.387Z,0.54
2023-03-24T19:25:11.856Z,0.16
2023-03-24T19:37:12.272Z,0.03
2023-03-24T19:49:12.764Z,0.91
2023-03-24T20:01:13.181Z,0.53
2023-03-24T20:13:13.621Z,0.47
2023-03-24T20:25:14.114Z,0.57
2023-03-24T20:37:14.549Z,0.10
2023-03-24T20:49:15.114Z,0.40
2023-03-24T21:01:15.456Z,0.12
2023-03-24T21:13:16.953Z,0.70
2023-03-24T21:25:16.409Z,0.42
2023-03-24T21:37:16.840Z,1.37
2023-03-24T21:49:17.750Z,1.29
2023-03-24T22:01:20.079Z,0.37
2023-03-24T22:13:18.193Z,0.00
2023-03-24T22:25:18.653Z,0.42
2023-03-24T22:37:19.081Z,0.34
2023-03-24T22:49:19.594Z,0.47
2023-03-24T23:01:20.231Z,0.52
2023-03-24T23:13:20.462Z,0.71
2023-03-24T23:25:23.135Z,0.17
2023-03-24T23:37:21.354Z,0.40
2023-03-24T23:49:24.619Z,0.33
